Time;durP1;ratioP1;P1;durP2;ratioP2;P2;SDS_P1;SDS_P2;PMS_P1;PMS_P2;Temp;Humidity;BMP_temperature;BMP_pressure;BME280_temperature;BME280_humidity;BME280_pressure;Samples;Min_cycle;Max_cycle;Signal;HPM_P1;HPM_P2
2023/11/05 00:02:07;;;;;;;1999.90;999.90;;;9.30;99.90;;;;;;5052370;28;20037;-68
2023/11/05 00:04:33;;;;;;;1999.90;999.90;;;9.30;99.90;;;;;;5053096;28;20112;-69
2023/11/05 00:06:59;;;;;;;1999.90;999.90;;;9.30;99.90;;;;;;5054357;28;20029;-68
2023/11/05 00:09:25;;;;;;;1999.90;999.90;;;9.40;99.90;;;;;;5043659;28;20017;-69
2023/11/05 00:11:50;;;;;;;1999.90;999.90;;;9.40;99.90;;;;;;5046962;28;20052;-74
2023/11/05 00:14:16;;;;;;;1999.90;999.90;;;9.40;99.90;;;;;;5048388;28;20049;-69
2023/11/05 00:16:41;;;;;;;1999.90;999.90;;;9.40;99.90;;;;;;5053061;28;20307;-70
2023/11/05 00:19:08;;;;;;;1999.90;999.90;;;9.50;99.90;;;;;;5044571;28;20029;-69
2023/11/05 00:21:34;;;;;;;1999.90;999.90;;;9.40;99.90;;;;;;5050502;28;20381;-68
2023/11/05 00:24:01;;;;;;;1999.90;999.90;;;9.40;99.90;;;;;;5055157;28;20120;-69
2023/11/05 00:26:27;;;;;;;1999.90;999.90;;;9.50;99.90;;;;;;5047995;28;20113;-68
2023/11/05 00:28:52;;;;;;;1999.90;999.90;;;9.50;99.90;;;;;;5054028;28;20039;-69
2023/11/05 00:31:18;;;;;;;1999.90;999.90;;;9.50;99.90;;;;;;5053686;28;20036;-68
2023/11/05 00:33:45;;;;;;;1999.90;999.90;;;9.50;99.90;;;;;;5054178;28;20021;-68
2023/11/05 00:36:11;;;;;;;;;;;9.50;99.90;;;;;;5045473;28;20037;-69
2023/11/05 00:38:37;;;;;;;1999.90;999.90;;;9.60;99.90;;;;;;5049756;28;19959;-69
2023/11/05 00:41:04;;;;;;;1999.90;999.90;;;9.60;99.90;;;;;;5047387;28;20100;-69
2023/11/05 00:43:30;;;;;;;;;;;9.50;99.90;;;;;;5048128;28;20108;-77
2023/11/05 00:45:56;;;;;;;1999.90;999.90;;;9.50;99.90;;;;;;5052909;28;20276;-69
2023/11/05 00:48:21;;;;;;;1999.90;999.90;;;9.50;99.90;;;;;;5047600;28;20040;-69
2023/11/05 00:50:47;;;;;;;1999.90;999.90;;;9.50;99.90;;;;;;5049786;28;20127;-69
2023/11/05 00:53:13;;;;;;;1999.90;999.90;;;9.50;99.90;;;;;;5042724;28;20037;-69
2023/11/05 00:55:39;;;;;;;1999.90;999.90;;;9.60;99.90;;;;;;5046973;28;20025;-69
2023/11/05 00:58:05;;;;;;;1999.90;999.90;;;9.60;99.90;;;;;;5040022;28;20024;-68
2023/11/05 01:00:31;;;;;;;1999.90;999.90;;;9.50;99.90;;;;;;5051319;28;20095;-69
2023/11/05 01:02:56;;;;;;;1999.90;999.90;;;9.50;99.90;;;;;;5045696;28;20128;-69
2023/11/05 01:05:22;;;;;;;1999.90;999.90;;;9.50;99.90;;;;;;5045830;28;20036;-69
2023/11/05 01:07:48;;;;;;;1999.90;999.90;;;9.50;99.90;;;;;;5046254;28;20029;-69
2023/11/05 01:10:14;;;;;;;1999.90;999.90;;;9.50;99.90;;;;;;5047132;28;20047;-69
2023/11/05 01:12:40;;;;;;;1999.90;999.90;;;9.60;99.90;;;;;;5052787;28;20028;-69
2023/11/05 01:15:07;;;;;;;1999.90;999.90;;;9.60;99.90;;;;;;5046499;28;20344;-76
2023/11/05 01:17:32;;;;;;;;;;;9.50;99.90;;;;;;5053635;28;20029;-69
2023/11/05 01:19:58;;;;;;;1999.90;999.90;;;9.60;99.90;;;;;;5043870;28;19920;-69
2023/11/05 01:22:24;;;;;;;1999.90;999.90;;;9.60;99.90;;;;;;5047611;28;20052;-69
2023/11/05 01:24:49;;;;;;;1999.90;999.90;;;9.60;99.90;;;;;;5052126;28;20044;-69
2023/11/05 01:27:15;;;;;;;1999.90;999.90;;;9.60;99.90;;;;;;5050258;28;20093;-69
2023/11/05 01:29:41;;;;;;;1999.90;999.90;;;9.60;99.90;;;;;;5050980;28;20035;-69
2023/11/05 01:32:07;;;;;;;1999.90;999.90;;;9.50;99.90;;;;;;5052048;28;20017;-69
2023/11/05 01:34:33;;;;;;;1999.90;999.90;;;9.60;99.90;;;;;;5052716;28;20021;-70
2023/11/05 01:36:59;;;;;;;1999.90;999.90;;;9.60;99.90;;;;;;5046600;28;20037;-69
2023/11/05 01:39:25;;;;;;;1999.90;999.90;;;9.60;99.90;;;;;;5052363;28;20029;-69
2023/11/05 01:41:52;;;;;;;1999.90;999.90;;;9.60;99.90;;;;;;5048692;28;20033;-77
2023/11/05 01:44:19;;;;;;;1999.90;999.90;;;9.60;99.90;;;;;;5045172;28;20075;-69
2023/11/05 01:46:46;;;;;;;1999.90;999.90;;;9.60;99.90;;;;;;5051228;28;20033;-69
2023/11/05 01:49:12;;;;;;;1999.90;999.90;;;9.60;99.90;;;;;;5047888;28;20059;-69
2023/11/05 01:51:38;;;;;;;1999.90;999.90;;;9.60;99.90;;;;;;5051396;28;20428;-69
2023/11/05 01:54:07;;;;;;;1999.90;999.90;;;9.60;99.90;;;;;;5052290;28;20631;-78
2023/11/05 01:56:35;;;;;;;1999.90;999.90;;;9.60;99.90;;;;;;5051518;28;20033;-69
2023/11/05 01:59:03;;;;;;;1999.90;999.90;;;9.60;99.90;;;;;;5051542;28;20021;-69
2023/11/05 02:01:28;;;;;;;1999.90;999.90;;;9.60;99.90;;;;;;5045130;28;20424;-69
2023/11/05 02:03:55;;;;;;;1999.90;999.90;;;9.60;99.90;;;;;;5046645;28;20029;-69
2023/11/05 02:06:21;;;;;;;1999.90;999.90;;;9.60;99.90;;;;;;5045903;28;20036;-69
2023/11/05 02:08:47;;;;;;;1999.90;999.90;;;9.70;99.90;;;;;;5051891;28;20033;-69
2023/11/05 02:11:13;;;;;;;1999.90;999.90;;;9.70;99.90;;;;;;5049587;28;20276;-69
2023/11/05 02:13:43;;;;;;;1999.90;999.90;;;9.70;99.90;;;;;;5048976;28;20028;-78
2023/11/05 02:16:09;;;;;;;1999.90;999.90;;;9.70;99.90;;;;;;5057497;28;20021;-69
2023/11/05 02:18:35;;;;;;;1999.90;999.90;;;9.70;99.90;;;;;;5055275;28;20032;-69
2023/11/05 02:21:04;;;;;;;1999.90;999.90;;;9.70;99.90;;;;;;5053305;28;20032;-69
2023/11/05 02:23:31;;;;;;;1999.90;999.90;;;9.80;99.90;;;;;;5053687;28;20031;-69
2023/11/05 02:25:56;;;;;;;1999.90;999.90;;;9.70;99.90;;;;;;5058590;28;20033;-68
2023/11/05 02:28:23;;;;;;;1999.90;999.90;;;9.80;99.90;;;;;;5057105;28;20040;-69
2023/11/05 02:30:54;;;;;;;1999.90;999.90;;;9.80;99.90;;;;;;5052530;28;20061;-69
2023/11/05 02:33:20;;;;;;;1999.90;999.90;;;9.80;99.90;;;;;;5058620;28;20032;-69
2023/11/05 02:35:46;;;;;;;1999.90;999.90;;;9.80;99.90;;;;;;5054261;28;20021;-68
2023/11/05 02:38:12;;;;;;;1999.90;999.90;;;9.80;99.90;;;;;;5056409;28;20082;-69
2023/11/05 02:40:37;;;;;;;1999.90;999.90;;;9.80;99.90;;;;;;5058242;28;20058;-68
2023/11/05 02:43:03;;;;;;;1999.90;999.90;;;9.80;99.90;;;;;;5055597;28;20331;-69
2023/11/05 02:45:29;;;;;;;1999.90;999.90;;;9.80;99.90;;;;;;5057459;28;20116;-69
2023/11/05 02:47:55;;;;;;;1999.90;999.90;;;9.90;99.90;;;;;;5054139;28;20420;-69
2023/11/05 02:50:20;;;;;;;1999.90;999.90;;;9.80;99.90;;;;;;5055606;28;20124;-69
2023/11/05 02:52:46;;;;;;;1999.90;999.90;;;9.80;99.90;;;;;;5044445;28;20259;-68
2023/11/05 02:55:12;;;;;;;1999.90;999.90;;;9.80;99.90;;;;;;5053768;28;20029;-69
2023/11/05 02:57:38;;;;;;;1999.90;999.90;;;9.80;99.90;;;;;;5048173;28;20065;-68
2023/11/05 03:00:07;;;;;;;1999.90;999.90;;;9.80;99.90;;;;;;5051275;28;20068;-69
2023/11/05 03:02:36;;;;;;;1999.90;999.90;;;9.80;99.90;;;;;;5049367;28;20082;-68
2023/11/05 03:05:03;;;;;;;1999.90;999.90;;;9.80;99.90;;;;;;5049981;28;20647;-68
2023/11/05 03:07:30;;;;;;;1999.90;999.90;;;9.80;99.90;;;;;;5053275;28;20316;-69
2023/11/05 03:09:56;;;;;;;1999.90;999.90;;;9.80;99.90;;;;;;5045623;28;20029;-68
2023/11/05 03:12:23;;;;;;;1999.90;999.90;;;9.80;99.90;;;;;;5046448;28;20367;-69
2023/11/05 03:14:50;;;;;;;1999.90;999.90;;;9.80;99.90;;;;;;5045855;28;20025;-69
2023/11/05 03:17:17;;;;;;;1999.90;999.90;;;9.80;99.90;;;;;;5053017;28;20025;-69
2023/11/05 03:19:43;;;;;;;1999.90;999.90;;;9.80;99.90;;;;;;5050546;28;20040;-68
2023/11/05 03:22:10;;;;;;;1999.90;999.90;;;9.80;99.90;;;;;;5052186;28;20029;-69
2023/11/05 03:24:35;;;;;;;1999.90;999.90;;;9.70;99.90;;;;;;5042819;28;20096;-68
2023/11/05 03:27:02;;;;;;;1999.90;999.90;;;9.80;99.90;;;;;;5045302;28;20121;-69
2023/11/05 03:29:28;;;;;;;1999.90;999.90;;;9.80;99.90;;;;;;5048395;28;20124;-74
2023/11/05 03:31:54;;;;;;;1999.90;999.90;;;9.80;99.90;;;;;;5045570;28;20033;-69
2023/11/05 03:34:20;;;;;;;1999.90;999.90;;;9.80;99.90;;;;;;5044693;28;20017;-68
2023/11/05 03:36:46;;;;;;;1999.90;999.90;;;9.80;99.90;;;;;;5047387;28;20021;-68
2023/11/05 03:39:12;;;;;;;1999.90;999.90;;;9.80;99.90;;;;;;5049734;28;20057;-68
2023/11/05 03:41:38;;;;;;;1999.90;999.90;;;9.80;99.90;;;;;;5042911;28;20056;-68
2023/11/05 03:44:04;;;;;;;1999.90;999.90;;;9.80;99.90;;;;;;5044100;28;20060;-68
2023/11/05 03:46:30;;;;;;;1999.90;999.90;;;9.80;99.90;;;;;;5042371;28;20408;-74
2023/11/05 03:48:56;;;;;;;1999.90;999.90;;;9.80;99.90;;;;;;5041209;28;20040;-69
2023/11/05 03:51:22;;;;;;;1999.90;999.90;;;9.80;99.90;;;;;;5049727;28;20119;-69
2023/11/05 03:53:48;;;;;;;1999.90;999.90;;;9.80;99.90;;;;;;5042698;28;20316;-69
2023/11/05 03:56:16;;;;;;;1999.90;999.90;;;9.80;99.90;;;;;;5049280;28;20044;-69
2023/11/05 03:58:41;;;;;;;1999.90;999.90;;;9.80;99.90;;;;;;5045110;28;20052;-72
2023/11/05 04:01:16;;;;;;;1999.90;999.90;;;9.80;99.90;;;;;;5043571;28;20032;-68
2023/11/05 04:03:42;;;;;;;1999.90;999.90;;;9.90;99.90;;;;;;5043206;28;20036;-69
2023/11/05 04:06:08;;;;;;;1999.90;999.90;;;9.80;99.90;;;;;;5049259;28;20041;-68
2023/11/05 04:08:34;;;;;;;1999.90;999.90;;;9.80;99.90;;;;;;5043581;28;20522;-69
2023/11/05 04:11:00;;;;;;;1999.90;999.90;;;9.80;99.90;;;;;;5041371;28;20439;-73
2023/11/05 04:13:25;;;;;;;1999.90;999.90;;;9.80;99.90;;;;;;5048585;28;20400;-68
2023/11/05 04:15:51;;;;;;;1999.90;999.90;;;9.80;99.90;;;;;;5054549;28;20036;-73
2023/11/05 04:18:18;;;;;;;1999.90;999.90;;;9.80;99.90;;;;;;5050003;28;20059;-68
2023/11/05 04:20:43;;;;;;;1999.90;999.90;;;9.80;99.90;;;;;;5051213;28;20037;-69
2023/11/05 04:23:10;;;;;;;1999.90;999.90;;;9.70;99.90;;;;;;5045388;28;20032;-68
2023/11/05 04:25:36;;;;;;;1999.90;999.90;;;9.70;99.90;;;;;;5054230;28;20032;-68
2023/11/05 04:28:02;;;;;;;1999.90;999.90;;;9.70;99.90;;;;;;5045860;28;20036;-71
2023/11/05 04:30:28;;;;;;;1999.90;999.90;;;9.80;99.90;;;;;;5053820;28;20032;-68
2023/11/05 04:32:53;;;;;;;1999.90;999.90;;;9.70;99.90;;;;;;5050782;28;20335;-68
2023/11/05 04:35:19;;;;;;;1999.90;999.90;;;9.70;99.90;;;;;;5051239;28;20423;-68
2023/11/05 04:37:45;;;;;;;1999.90;999.90;;;9.70;99.90;;;;;;5050765;28;20432;-68
2023/11/05 04:40:11;;;;;;;1999.90;999.90;;;9.70;99.90;;;;;;5048711;28;20025;-74
2023/11/05 04:42:37;;;;;;;1999.90;999.90;;;9.70;99.90;;;;;;5052542;28;20033;-68
2023/11/05 04:45:03;;;;;;;1999.90;999.90;;;9.70;99.90;;;;;;5052250;28;20032;-68
2023/11/05 04:47:29;;;;;;;1999.90;999.90;;;9.70;99.90;;;;;;5045473;28;20028;-69
2023/11/05 04:49:55;;;;;;;1999.90;999.90;;;9.70;99.90;;;;;;5053126;28;20518;-74
2023/11/05 04:52:21;;;;;;;1999.90;999.90;;;9.80;99.90;;;;;;5048576;28;20029;-68
2023/11/05 04:54:47;;;;;;;1999.90;999.90;;;9.70;99.90;;;;;;5045799;28;20040;-68
2023/11/05 04:57:13;;;;;;;1999.90;999.90;;;9.80;99.90;;;;;;5051737;28;20029;-68
2023/11/05 04:59:41;;;;;;;1999.90;999.90;;;9.80;99.90;;;;;;5049821;28;20396;-68
2023/11/05 05:02:07;;;;;;;1999.90;999.90;;;9.80;99.90;;;;;;5045020;28;20119;-68
2023/11/05 05:04:33;;;;;;;;;;;9.80;99.90;;;;;;5052269;28;20029;-69
2023/11/05 05:06:59;;;;;;;1999.90;999.90;;;9.80;99.90;;;;;;5052853;28;19912;-68
2023/11/05 05:09:25;;;;;;;1999.90;999.90;;;9.80;99.90;;;;;;5051460;28;20412;-69
2023/11/05 05:11:51;;;;;;;1999.90;999.90;;;9.90;99.90;;;;;;5047640;28;20033;-75
2023/11/05 05:14:16;;;;;;;1999.90;999.90;;;9.80;99.90;;;;;;5051123;28;20021;-68
2023/11/05 05:16:42;;;;;;;1999.90;999.90;;;9.90;99.90;;;;;;5054067;28;20025;-68
2023/11/05 05:19:08;;;;;;;1999.90;999.90;;;9.90;99.90;;;;;;5052190;28;20025;-68
2023/11/05 05:21:34;;;;;;;1999.90;999.90;;;9.90;99.90;;;;;;5054256;28;20025;-68
2023/11/05 05:23:59;;;;;;;1999.90;999.90;;;9.90;99.90;;;;;;5052397;28;20056;-68
2023/11/05 05:26:25;;;;;;;1999.90;999.90;;;9.90;99.90;;;;;;5053981;28;20414;-68
2023/11/05 05:28:51;;;;;;;1999.90;999.90;;;9.90;99.90;;;;;;5051470;28;20108;-75
2023/11/05 05:31:16;;;;;;;1999.90;999.90;;;9.90;99.90;;;;;;5053117;28;20025;-68
2023/11/05 05:33:43;;;;;;;1999.90;999.90;;;10.00;99.90;;;;;;5051717;28;20056;-68
2023/11/05 05:36:09;;;;;;;1999.90;999.90;;;9.90;99.90;;;;;;5052087;28;20035;-68
2023/11/05 05:38:34;;;;;;;1999.90;999.90;;;10.00;99.90;;;;;;5053090;28;20487;-68
2023/11/05 05:41:00;;;;;;;1999.90;999.90;;;10.00;99.90;;;;;;5045740;28;20151;-68
2023/11/05 05:43:26;;;;;;;1999.90;999.90;;;10.00;99.90;;;;;;5052347;28;20070;-68
2023/11/05 05:45:52;;;;;;;1999.90;999.90;;;10.00;99.90;;;;;;5050666;28;20040;-68
2023/11/05 05:48:18;;;;;;;1999.90;999.90;;;10.10;99.90;;;;;;5046589;28;20391;-68
2023/11/05 05:50:44;;;;;;;1999.90;999.90;;;10.10;99.90;;;;;;5053244;28;20680;-68
2023/11/05 05:53:12;;;;;;;1999.90;999.90;;;10.10;99.90;;;;;;5052871;28;20155;-68
2023/11/05 05:55:41;;;;;;;1999.90;999.90;;;10.10;99.90;;;;;;5052181;28;20032;-76
2023/11/05 05:58:07;;;;;;;1999.90;999.90;;;10.10;99.90;;;;;;5052503;28;20200;-68
2023/11/05 06:00:33;;;;;;;1999.90;999.90;;;10.10;99.90;;;;;;5053146;28;20569;-68
2023/11/05 06:02:59;;;;;;;1999.90;999.90;;;10.10;99.90;;;;;;5051491;28;20112;-68
2023/11/05 06:05:24;;;;;;;1999.90;999.90;;;10.10;99.90;;;;;;5043039;28;20021;-68
2023/11/05 06:07:50;;;;;;;1999.90;999.90;;;10.10;99.90;;;;;;5041870;28;20036;-68
2023/11/05 06:10:16;;;;;;;1999.90;999.90;;;10.00;99.90;;;;;;5044956;28;20022;-68
2023/11/05 06:12:42;;;;;;;1999.90;999.90;;;10.10;99.90;;;;;;5053157;28;20029;-71
2023/11/05 06:15:09;;;;;;;1999.90;999.90;;;10.10;99.90;;;;;;5044384;28;20029;-69
2023/11/05 06:17:35;;;;;;;1999.90;999.90;;;10.10;99.90;;;;;;5051182;28;20025;-68
2023/11/05 06:20:05;;;;;;;1999.90;999.90;;;10.10;99.90;;;;;;5053427;28;20126;-68
2023/11/05 06:22:32;;;;;;;1999.90;999.90;;;10.10;99.90;;;;;;5050998;28;20107;-68
2023/11/05 06:24:58;;;;;;;1999.90;999.90;;;10.10;99.90;;;;;;5046401;28;20447;-68
2023/11/05 06:27:24;;;;;;;1999.90;999.90;;;10.10;99.90;;;;;;5051226;28;20048;-68
2023/11/05 06:29:49;;;;;;;1999.90;999.90;;;10.10;99.90;;;;;;5053155;28;20037;-68
2023/11/05 06:32:16;;;;;;;1999.90;999.90;;;10.10;99.90;;;;;;5048722;28;20024;-68
2023/11/05 06:34:42;;;;;;;1999.90;999.90;;;10.10;99.90;;;;;;5050400;28;20021;-68
2023/11/05 06:37:07;;;;;;;1999.90;999.90;;;10.10;99.90;;;;;;5048157;28;20090;-68
2023/11/05 06:39:33;;;;;;;1999.90;999.90;;;10.10;99.90;;;;;;5052105;28;20029;-68
2023/11/05 06:41:59;;;;;;;1999.90;999.90;;;10.10;99.90;;;;;;5053192;28;20038;-68
2023/11/05 06:44:25;;;;;;;1999.90;999.90;;;10.10;99.90;;;;;;5045861;28;20026;-68
2023/11/05 06:46:52;;;;;;;1999.90;999.90;;;10.10;99.90;;;;;;5050070;28;20033;-76
2023/11/05 06:49:18;;;;;;;1999.90;999.90;;;10.20;99.90;;;;;;5052164;28;20041;-68
2023/11/05 06:51:43;;;;;;;1999.90;999.90;;;10.10;99.90;;;;;;5047673;28;20052;-68
2023/11/05 06:54:09;;;;;;;1999.90;999.90;;;10.20;99.90;;;;;;5052946;28;20029;-68
2023/11/05 06:56:36;;;;;;;1999.90;999.90;;;10.20;99.90;;;;;;5052435;28;20351;-68
2023/11/05 06:59:02;;;;;;;1999.90;999.90;;;10.20;99.90;;;;;;5053879;28;20033;-68
2023/11/05 07:01:29;;;;;;;1999.90;999.90;;;10.20;99.90;;;;;;5053441;28;20526;-68
2023/11/05 07:03:55;;;;;;;1999.90;999.90;;;10.20;99.90;;;;;;5045192;28;20032;-68
2023/11/05 07:06:20;;;;;;;1999.90;999.90;;;10.20;99.90;;;;;;5047683;28;20111;-68
2023/11/05 07:08:46;;;;;;;1999.90;999.90;;;10.20;99.90;;;;;;5050520;28;20042;-68
2023/11/05 07:11:12;;;;;;;1999.90;999.90;;;10.20;99.90;;;;;;5050139;28;20029;-68
2023/11/05 07:13:37;;;;;;;1999.90;999.90;;;10.20;99.90;;;;;;5052410;28;20881;-69
2023/11/05 07:16:04;;;;;;;1999.90;999.90;;;10.20;99.90;;;;;;5048835;28;20094;-68
2023/11/05 07:18:30;;;;;;;1999.90;999.90;;;10.20;99.90;;;;;;5044688;28;20025;-68
2023/11/05 07:20:57;;;;;;;1999.90;999.90;;;10.20;99.90;;;;;;5049701;28;20048;-68
2023/11/05 07:23:23;;;;;;;1999.90;999.90;;;10.30;99.90;;;;;;5049165;28;20105;-68
2023/11/05 07:25:49;;;;;;;1999.90;999.90;;;10.30;99.90;;;;;;5048205;28;20111;-68
2023/11/05 07:28:15;;;;;;;1999.90;999.90;;;10.30;99.90;;;;;;5052294;28;20031;-68
2023/11/05 07:30:41;;;;;;;1999.90;999.90;;;10.30;99.90;;;;;;5049327;28;20356;-68
2023/11/05 07:33:09;;;;;;;1999.90;999.90;;;10.40;99.90;;;;;;5052229;28;20021;-68
2023/11/05 07:35:35;;;;;;;1999.90;999.90;;;10.40;99.90;;;;;;5045036;28;20013;-69
2023/11/05 07:38:01;;;;;;;1999.90;999.90;;;10.40;99.90;;;;;;5036071;28;20451;-69
2023/11/05 07:40:26;;;;;;;1999.90;999.90;;;10.50;99.90;;;;;;5045312;28;20053;-68
2023/11/05 07:42:52;;;;;;;1999.90;999.90;;;10.50;99.90;;;;;;5050645;28;20414;-69
2023/11/05 07:45:19;;;;;;;1999.90;999.90;;;10.50;99.90;;;;;;5046759;28;20029;-69
2023/11/05 07:47:45;;;;;;;1999.90;999.90;;;10.50;99.90;;;;;;5045899;28;20108;-68
2023/11/05 07:50:12;;;;;;;1999.90;999.90;;;10.60;99.90;;;;;;5050465;28;20033;-79
2023/11/05 07:52:41;;;;;;;1999.90;999.90;;;10.60;99.90;;;;;;5051360;28;20032;-68
2023/11/05 07:55:13;;;;;;;1999.90;999.90;;;10.60;99.90;;;;;;5048304;28;20025;-70
2023/11/05 07:57:39;;;;;;;1999.90;999.90;;;10.70;99.90;;;;;;5050496;28;20408;-68
2023/11/05 08:00:15;;;;;;;1999.90;999.90;;;10.70;99.90;;;;;;5045556;28;20055;-68
2023/11/05 08:02:47;;;;;;;1999.90;999.90;;;10.70;99.90;;;;;;5050135;28;20124;-68
2023/11/05 08:05:13;;;;;;;1999.90;999.90;;;10.70;99.90;;;;;;5046231;28;20029;-69
2023/11/05 08:07:40;;;;;;;1999.90;999.90;;;10.80;99.90;;;;;;5047851;28;20052;-68
2023/11/05 08:10:08;;;;;;;1999.90;999.90;;;10.80;99.90;;;;;;5045814;28;20029;-71
2023/11/05 08:12:34;;;;;;;1999.90;999.90;;;10.80;99.90;;;;;;5061968;28;20033;-68
2023/11/05 08:15:01;;;;;;;1999.90;999.90;;;10.80;99.90;;;;;;5045448;28;20021;-68
2023/11/05 08:17:27;;;;;;;1999.90;999.90;;;10.80;99.90;;;;;;5043997;28;20033;-68
2023/11/05 08:19:54;;;;;;;1999.90;999.90;;;10.90;99.90;;;;;;5043673;28;20056;-69
2023/11/05 08:22:20;;;;;;;1999.90;999.90;;;10.90;99.90;;;;;;5048968;28;20274;-69
2023/11/05 08:24:46;;;;;;;1999.90;999.90;;;10.90;99.90;;;;;;5054430;28;20549;-69
2023/11/05 08:27:12;;;;;;;1999.90;999.90;;;10.80;99.90;;;;;;5052141;28;20066;-71
2023/11/05 08:29:43;;;;;;;1999.90;999.90;;;10.90;99.90;;;;;;5052935;28;20135;-68
2023/11/05 08:32:09;;;;;;;1999.90;999.90;;;10.90;99.90;;;;;;5049309;28;20048;-69
2023/11/05 08:34:35;;;;;;;1999.90;999.90;;;11.00;99.90;;;;;;5053807;28;20029;-69
2023/11/05 08:37:02;;;;;;;1999.90;999.90;;;11.00;99.90;;;;;;5055135;28;20029;-69
2023/11/05 08:39:30;;;;;;;1999.90;999.90;;;11.00;99.90;;;;;;5052623;28;20822;-68
2023/11/05 08:41:57;;;;;;;1999.90;999.90;;;11.00;99.90;;;;;;5055971;28;20419;-69
2023/11/05 08:44:23;;;;;;;1999.90;999.90;;;11.10;99.90;;;;;;5054704;28;20025;-69
2023/11/05 08:46:49;;;;;;;1999.90;999.90;;;11.10;99.90;;;;;;5058771;28;20032;-69
2023/11/05 08:49:15;;;;;;;1999.90;999.90;;;11.10;99.90;;;;;;5045430;28;20454;-69
2023/11/05 08:51:41;;;;;;;1999.90;999.90;;;11.10;99.90;;;;;;5050779;28;20141;-69
2023/11/05 08:54:07;;;;;;;1999.90;999.90;;;11.10;99.90;;;;;;5053440;28;21261;-69
2023/11/05 08:56:33;;;;;;;1999.90;999.90;;;11.10;99.90;;;;;;5050602;28;20020;-69
2023/11/05 08:58:59;;;;;;;1999.90;999.90;;;11.10;99.90;;;;;;5052891;28;20037;-69
2023/11/05 09:01:25;;;;;;;1999.90;999.90;;;11.20;99.90;;;;;;5050010;28;20339;-69
2023/11/05 09:03:52;;;;;;;1999.90;999.90;;;11.20;99.90;;;;;;5050936;28;20033;-70
2023/11/05 09:06:20;;;;;;;1999.90;999.90;;;11.30;99.90;;;;;;5048242;28;20351;-69
2023/11/05 09:08:46;;;;;;;1999.90;999.90;;;11.30;99.90;;;;;;5052274;28;20423;-70
2023/11/05 09:11:13;;;;;;;1999.90;999.90;;;11.40;99.90;;;;;;5053218;28;20029;-69
2023/11/05 09:13:39;;;;;;;1999.90;999.90;;;11.40;99.90;;;;;;5057770;28;20025;-69
2023/11/05 09:16:10;;;;;;;1999.90;999.90;;;11.40;99.90;;;;;;5050250;28;20104;-69
2023/11/05 09:18:36;;;;;;;1999.90;999.90;;;11.50;99.90;;;;;;5048268;28;20437;-70
2023/11/05 09:21:04;;;;;;;1999.90;999.90;;;11.60;99.90;;;;;;5042430;28;20051;-69
2023/11/05 09:23:30;;;;;;;1999.90;999.90;;;11.70;99.90;;;;;;5045698;28;20045;-69
2023/11/05 09:25:55;;;;;;;1999.90;999.90;;;11.70;99.90;;;;;;5047894;28;20029;-70
2023/11/05 09:28:21;;;;;;;1999.90;999.90;;;11.70;99.90;;;;;;5044050;28;20281;-69
2023/11/05 09:30:47;;;;;;;1999.90;999.90;;;11.80;99.90;;;;;;5042781;28;20035;-69
2023/11/05 09:33:16;;;;;;;1999.90;999.90;;;11.80;99.90;;;;;;5048668;28;20427;-69
2023/11/05 09:35:42;;;;;;;1999.90;999.90;;;11.80;99.90;;;;;;5050371;28;20356;-69
2023/11/05 09:38:08;;;;;;;1999.90;999.90;;;11.90;99.90;;;;;;5051187;28;20420;-69
2023/11/05 09:40:34;;;;;;;1999.90;999.90;;;11.90;99.90;;;;;;5049516;28;20071;-69
2023/11/05 09:43:09;;;;;;;1999.90;999.90;;;12.10;99.90;;;;;;5044319;28;20025;-79
2023/11/05 09:45:36;;;;;;;1999.90;999.90;;;12.40;99.90;;;;;;5041652;28;20064;-69
2023/11/05 09:48:13;;;;;;;1999.90;999.90;;;12.60;99.90;;;;;;5042170;28;20558;-69
2023/11/05 09:50:43;;;;;;;1999.90;999.90;;;12.60;99.90;;;;;;5041603;28;20056;-74
2023/11/05 09:53:16;;;;;;;1999.90;999.90;;;12.70;99.90;;;;;;5042587;28;20025;-69
2023/11/05 09:55:44;;;;;;;1999.90;999.90;;;12.70;99.90;;;;;;5047167;28;20029;-78
2023/11/05 09:58:11;;;;;;;1999.90;999.90;;;12.60;99.90;;;;;;5048807;28;20025;-80
2023/11/05 10:00:37;;;;;;;1999.90;999.90;;;12.60;99.90;;;;;;5046449;28;20103;-69
2023/11/05 10:03:08;;;;;;;1999.90;999.90;;;12.50;99.90;;;;;;5051381;28;20047;-69
2023/11/05 10:05:37;;;;;;;1999.90;999.90;;;12.50;99.90;;;;;;5047095;28;20024;-69
2023/11/05 10:08:07;;;;;;;1999.90;999.90;;;12.40;99.90;;;;;;5048251;28;20423;-69
2023/11/05 10:10:35;;;;;;;1999.90;999.90;;;12.40;99.90;;;;;;5046951;28;20424;-69
2023/11/05 10:13:04;;;;;;;1999.90;999.90;;;12.30;99.90;;;;;;5048225;28;20023;-69
2023/11/05 10:15:33;;;;;;;1999.90;999.90;;;12.20;99.90;;;;;;5037469;28;20016;-69
2023/11/05 10:17:58;;;;;;;1999.90;999.90;;;12.10;99.90;;;;;;5044769;28;20090;-69
2023/11/05 10:20:25;;;;;;;1999.90;999.90;;;12.00;99.90;;;;;;5045124;28;20021;-70
2023/11/05 10:23:03;;;;;;;1999.90;999.90;;;11.90;99.90;;;;;;5044122;28;20032;-73
2023/11/05 10:25:30;;;;;;;1999.90;999.90;;;11.90;99.90;;;;;;5045951;28;20021;-70
2023/11/05 10:27:57;;;;;;;;;;;11.90;99.90;;;;;;5051208;28;20033;-70
2023/11/05 10:30:23;;;;;;;1999.90;999.90;;;11.80;99.90;;;;;;5046220;28;20219;-71
2023/11/05 10:32:53;;;;;;;;;;;11.70;99.90;;;;;;5050090;28;20465;-70
2023/11/05 10:35:32;;;;;;;1999.90;999.90;;;11.60;99.90;;;;;;5051157;28;19905;-79
2023/11/05 10:37:58;;;;;;;1999.90;999.90;;;11.60;99.90;;;;;;5046846;28;20160;-70
2023/11/05 10:40:25;;;;;;;1999.90;999.90;;;11.50;99.90;;;;;;5050938;28;20036;-69
2023/11/05 10:42:51;;;;;;;1999.90;999.90;;;11.50;99.90;;;;;;5045089;28;20031;-70
2023/11/05 10:45:19;;;;;;;1999.90;999.90;;;11.50;99.90;;;;;;5052750;28;20033;-70
2023/11/05 10:47:54;;;;;;;1999.90;999.90;;;11.50;99.90;;;;;;5046339;28;20029;-69
2023/11/05 10:50:28;;;;;;;1999.90;999.90;;;11.50;99.90;;;;;;5048989;28;20037;-69
2023/11/05 10:52:58;;;;;;;1999.90;999.90;;;11.40;99.90;;;;;;5052115;28;20036;-69
2023/11/05 10:55:32;;;;;;;1999.90;999.90;;;11.40;99.90;;;;;;5051546;28;20112;-69
2023/11/05 10:57:59;;;;;;;1999.90;999.90;;;11.40;99.90;;;;;;5055046;28;20040;-69
2023/11/05 11:00:25;;;;;;;1999.90;999.90;;;11.40;99.90;;;;;;5052583;28;20017;-70
2023/11/05 11:02:52;;;;;;;1999.90;999.90;;;11.40;99.90;;;;;;5051805;28;20320;-69
2023/11/05 11:05:20;;;;;;;1999.90;999.90;;;11.40;99.90;;;;;;5048343;28;20036;-70
2023/11/05 11:07:47;;;;;;;1999.90;999.90;;;11.40;99.90;;;;;;5050170;28;20024;-69
2023/11/05 11:10:20;;;;;;;1999.90;999.90;;;11.40;99.90;;;;;;5045779;28;20036;-70
2023/11/05 11:12:46;;;;;;;1999.90;999.90;;;11.40;99.90;;;;;;5049575;28;20031;-69
2023/11/05 11:15:33;;;;;;;1999.90;999.90;;;11.40;99.90;;;;;;5054614;28;20347;-72
2023/11/05 11:18:03;;;;;;;1999.90;999.90;;;11.40;99.90;;;;;;5052158;28;20055;-69
2023/11/05 11:20:31;;;;;;;1999.90;999.90;;;11.40;99.90;;;;;;5048306;28;20424;-69
2023/11/05 11:23:02;;;;;;;1999.90;999.90;;;11.40;99.90;;;;;;5047860;28;20026;-69
2023/11/05 11:25:33;;;;;;;1999.90;999.90;;;11.40;99.90;;;;;;5049452;28;20032;-69
2023/11/05 11:28:08;;;;;;;1999.90;999.90;;;11.50;99.90;;;;;;5039717;28;20116;-69
2023/11/05 11:30:35;;;;;;;1999.90;999.90;;;11.60;99.90;;;;;;5043663;28;20029;-69
2023/11/05 11:33:01;;;;;;;1999.90;999.90;;;11.70;99.90;;;;;;5040890;28;20029;-78
2023/11/05 11:35:28;;;;;;;1999.90;999.90;;;11.80;99.90;;;;;;5050259;28;20029;-69
2023/11/05 11:37:57;;;;;;;1999.90;999.90;;;12.10;99.90;;;;;;5049642;28;20488;-69
2023/11/05 11:40:23;;;;;;;1999.90;999.90;;;12.40;99.90;;;;;;5050401;28;20063;-69
2023/11/05 11:42:49;;;;;;;1999.90;999.90;;;12.70;99.90;;;;;;5049046;28;20057;-68
2023/11/05 11:45:15;;;;;;;1999.90;999.90;;;12.90;99.90;;;;;;5049346;28;20274;-72
2023/11/05 11:47:41;;;;;;;1999.90;999.90;;;12.90;99.90;;;;;;5050402;28;20288;-79
2023/11/05 11:50:08;;;;;;;1999.90;999.90;;;12.90;99.90;;;;;;5044241;28;20068;-69
2023/11/05 11:52:46;;;;;;;1999.90;999.90;;;12.90;99.90;;;;;;5048187;28;20262;-69
2023/11/05 11:55:12;;;;;;;1999.90;999.90;;;12.80;99.90;;;;;;5046164;28;20088;-79
2023/11/05 11:57:38;;;;;;;1999.90;999.90;;;12.70;99.90;;;;;;5050338;28;20586;-69
2023/11/05 12:00:10;;;;;;;1999.90;999.90;;;12.50;99.90;;;;;;5045578;28;20021;-69
2023/11/05 12:02:40;;;;;;;1999.90;999.90;;;12.50;99.90;;;;;;5044134;28;20029;-68
2023/11/05 12:05:06;;;;;;;1999.90;999.90;;;12.50;99.90;;;;;;5045402;28;20061;-69